createdAt,value
2023-04-03T00:00:58.161Z,4.10
2023-04-03T00:03:25.412Z,3.90
2023-04-03T00:05:52.454Z,3.90
2023-04-03T00:08:19.736Z,3.60
2023-04-03T00:10:46.996Z,3.90
2023-04-03T00:13:14.113Z,3.90
2023-04-03T00:15:41.475Z,3.80
2023-04-03T00:18:08.923Z,3.90
2023-04-03T00:20:36.584Z,4.00
2023-04-03T00:23:05.674Z,4.00
2023-04-03T00:25:32.748Z,4.10
2023-04-03T00:28:00.328Z,4.00
2023-04-03T00:30:27.759Z,4.00
2023-04-03T00:32:55.238Z,4.10
2023-04-03T00:35:23.589Z,4.00
2023-04-03T00:37:54.131Z,3.90
2023-04-03T00:40:22.960Z,4.00
2023-04-03T00:42:55.898Z,4.10
2023-04-03T00:45:42.514Z,4.10
2023-04-03T00:48:15.737Z,4.10
2023-04-03T00:50:44.275Z,4.10
2023-04-03T00:53:17.469Z,4.30
2023-04-03T00:55:44.882Z,4.10
2023-04-03T00:58:13.547Z,4.10
2023-04-03T01:00:43.386Z,4.20
2023-04-03T01:03:10.480Z,4.20
2023-04-03T01:05:40.778Z,4.10
2023-04-03T01:08:08.289Z,4.10
2023-04-03T01:10:35.517Z,4.10
2023-04-03T01:13:17.909Z,4.20
2023-04-03T01:15:45.089Z,4.20
2023-04-03T01:18:12.509Z,4.00
2023-04-03T01:21:21.035Z,4.00
2023-04-03T01:24:11.219Z,4.00
2023-04-03T01:26:38.418Z,4.00
2023-04-03T01:29:06.464Z,4.00
2023-04-03T01:31:51.872Z,4.00
2023-04-03T01:34:19.899Z,4.10
2023-04-03T01:36:47.065Z,4.00
2023-04-03T01:39:14.662Z,4.00
2023-04-03T01:41:41.982Z,3.90
2023-04-03T01:44:17.887Z,3.70
2023-04-03T01:46:46.024Z,3.80
2023-04-03T01:49:13.186Z,3.70
2023-04-03T01:51:40.347Z,3.70
2023-04-03T01:54:07.484Z,3.90
2023-04-03T01:56:34.640Z,3.90
2023-04-03T01:59:01.745Z,4.00
2023-04-03T02:01:29.598Z,4.00
2023-04-03T02:03:56.834Z,3.70
2023-04-03T02:06:23.940Z,3.80
2023-04-03T02:08:51.863Z,3.80
2023-04-03T02:11:18.990Z,3.70
2023-04-03T02:13:46.181Z,3.60
2023-04-03T02:16:14.613Z,3.60
2023-04-03T02:18:42.494Z,3.50
2023-04-03T02:21:09.730Z,3.40
2023-04-03T02:23:37.983Z,3.30
2023-04-03T02:26:11.591Z,3.40
2023-04-03T02:28:39.006Z,3.40
2023-04-03T02:31:07.721Z,3.50
2023-04-03T02:33:37.830Z,3.30
2023-04-03T02:36:09.059Z,3.40
2023-04-03T02:38:36.811Z,3.60
2023-04-03T02:41:09.381Z,3.70
2023-04-03T02:43:36.617Z,3.60
2023-04-03T02:46:06.512Z,3.50
2023-04-03T02:48:33.812Z,3.70
2023-04-03T02:51:00.917Z,3.50
2023-04-03T02:53:28.163Z,3.50
2023-04-03T02:55:55.520Z,3.30
2023-04-03T02:58:22.651Z,3.40
2023-04-03T03:00:50.006Z,3.50
2023-04-03T03:03:17.138Z,3.40
2023-04-03T03:05:44.284Z,3.50
2023-04-03T03:08:12.222Z,3.40
2023-04-03T03:10:39.564Z,3.30
2023-04-03T03:13:08.476Z,3.30
2023-04-03T03:15:35.547Z,2.60
2023-04-03T03:18:03.344Z,3.00
2023-04-03T03:20:30.495Z,3.30
2023-04-03T03:22:58.711Z,3.30
2023-04-03T03:25:25.866Z,3.40
2023-04-03T03:27:52.969Z,3.40
2023-04-03T03:30:20.251Z,3.50
2023-04-03T03:32:47.941Z,3.40
2023-04-03T03:35:15.148Z,3.30
2023-04-03T03:37:42.313Z,3.40
2023-04-03T03:40:10.340Z,3.60
2023-04-03T03:42:38.498Z,3.30
2023-04-03T03:45:06.278Z,3.20
2023-04-03T03:47:33.428Z,3.20
2023-04-03T03:50:01.111Z,3.30
2023-04-03T03:52:28.327Z,3.30
2023-04-03T03:54:55.556Z,3.30
2023-04-03T03:57:22.849Z,3.20
2023-04-03T03:59:51.322Z,3.20
2023-04-03T04:02:19.412Z,3.30
2023-04-03T04:04:47.048Z,3.40
2023-04-03T04:07:15.148Z,3.40
2023-04-03T04:09:42.509Z,3.30
2023-04-03T04:12:10.415Z,3.40
2023-04-03T04:14:38.442Z,3.40
2023-04-03T04:17:07.993Z,3.50
2023-04-03T04:19:36.603Z,3.40
2023-04-03T04:22:03.978Z,3.40
2023-04-03T04:24:33.007Z,3.40
2023-04-03T04:27:02.000Z,3.10
2023-04-03T04:29:36.194Z,3.00
2023-04-03T04:32:05.278Z,3.30
2023-04-03T04:34:32.631Z,3.40
2023-04-03T04:37:00.939Z,3.20
2023-04-03T04:39:28.570Z,3.20
2023-04-03T04:41:58.014Z,3.40
2023-04-03T04:44:27.566Z,3.00
2023-04-03T04:46:54.913Z,3.00
2023-04-03T04:49:22.129Z,3.10
2023-04-03T04:51:52.407Z,3.20
2023-04-03T04:54:25.519Z,3.20
2023-04-03T04:56:53.155Z,3.00
2023-04-03T04:59:22.016Z,2.90
2023-04-03T05:01:50.545Z,3.10
2023-04-03T05:04:18.551Z,3.20
2023-04-03T05:06:49.779Z,3.20
2023-04-03T05:09:23.368Z,3.20
2023-04-03T05:11:51.927Z,3.30
2023-04-03T05:14:22.475Z,3.20
2023-04-03T05:16:53.800Z,3.00
2023-04-03T05:19:23.777Z,3.20
2023-04-03T05:21:53.833Z,3.20
2023-04-03T05:24:21.989Z,3.30
2023-04-03T05:26:49.251Z,3.30
2023-04-03T05:29:17.224Z,3.20
2023-04-03T05:31:44.614Z,3.30
2023-04-03T05:34:14.212Z,3.30
2023-04-03T05:36:42.617Z,3.20
2023-04-03T05:39:10.437Z,3.30
2023-04-03T05:41:40.865Z,3.30
2023-04-03T05:44:08.282Z,3.10
2023-04-03T05:46:35.555Z,3.20
2023-04-03T05:49:06.750Z,3.20
2023-04-03T05:51:38.680Z,3.20
2023-04-03T05:54:32.044Z,3.30
2023-04-03T05:57:06.448Z,3.30
2023-04-03T05:59:33.615Z,3.50
2023-04-03T06:02:02.251Z,3.60
2023-04-03T06:04:30.344Z,3.50
2023-04-03T06:06:59.139Z,3.50
2023-04-03T06:09:30.169Z,3.40
2023-04-03T06:11:59.665Z,3.20
2023-04-03T06:14:28.278Z,3.00
2023-04-03T06:16:55.992Z,2.90
2023-04-03T06:19:24.055Z,2.90
2023-04-03T06:21:55.923Z,2.80
2023-04-03T06:24:26.191Z,2.90
2023-04-03T06:26:54.156Z,3.00
2023-04-03T06:29:21.577Z,3.00
2023-04-03T06:31:49.593Z,2.90
2023-04-03T06:34:18.196Z,3.00
2023-04-03T06:36:46.264Z,3.00
2023-04-03T06:39:17.041Z,3.00
2023-04-03T06:41:44.583Z,2.90
2023-04-03T06:44:16.735Z,2.90
2023-04-03T06:46:45.248Z,2.90
2023-04-03T06:49:12.460Z,3.00
2023-04-03T06:51:39.871Z,2.90
2023-04-03T06:54:09.338Z,3.00
2023-04-03T06:56:36.833Z,3.10
2023-04-03T06:59:04.361Z,3.20
2023-04-03T07:01:32.533Z,3.20
2023-04-03T07:03:59.942Z,3.30
2023-04-03T07:06:29.779Z,3.30
2023-04-03T07:08:56.987Z,3.40
2023-04-03T07:11:24.333Z,3.50
2023-04-03T07:13:52.197Z,3.40
2023-04-03T07:16:19.355Z,3.50
2023-04-03T07:18:47.536Z,3.70
2023-04-03T07:21:14.835Z,3.70
2023-04-03T07:23:41.960Z,3.70
2023-04-03T07:26:09.256Z,3.50
2023-04-03T07:28:37.760Z,3.50
2023-04-03T07:31:09.461Z,3.50
2023-04-03T07:33:38.289Z,3.60
2023-04-03T07:36:08.023Z,3.60
2023-04-03T07:38:36.563Z,3.60
2023-04-03T07:41:04.984Z,3.50
2023-04-03T07:43:32.634Z,3.60
2023-04-03T07:45:59.827Z,3.60
2023-04-03T07:48:27.653Z,3.60
2023-04-03T07:50:54.751Z,3.60
2023-04-03T07:53:21.912Z,3.80
2023-04-03T07:55:52.650Z,3.90
2023-04-03T07:58:20.156Z,3.90
2023-04-03T08:00:47.761Z,3.80
2023-04-03T08:03:17.805Z,3.80
2023-04-03T08:05:47.702Z,3.90
2023-04-03T08:08:21.549Z,3.90
2023-04-03T08:10:53.745Z,4.00
2023-04-03T08:13:21.683Z,4.10
2023-04-03T08:15:49.095Z,4.00
2023-04-03T08:18:17.131Z,4.10
2023-04-03T08:20:44.544Z,4.20
2023-04-03T08:23:12.368Z,4.00
2023-04-03T08:25:43.624Z,3.80
2023-04-03T08:28:12.446Z,4.10
2023-04-03T08:30:44.805Z,4.20
2023-04-03T08:33:12.129Z,4.20
2023-04-03T08:35:41.724Z,4.30
2023-04-03T08:38:10.424Z,4.40
2023-04-03T08:40:37.881Z,4.50
2023-04-03T08:43:40.526Z,4.60
2023-04-03T08:46:13.643Z,4.60
2023-04-03T08:48:44.562Z,4.70
2023-04-03T08:51:21.599Z,4.70
2023-04-03T08:54:16.533Z,5.00
2023-04-03T08:56:43.718Z,5.40
2023-04-03T08:59:18.452Z,5.40
2023-04-03T09:01:46.308Z,5.30
2023-04-03T09:04:16.267Z,5.20
2023-04-03T09:06:55.311Z,5.00
2023-04-03T09:09:34.860Z,4.80
2023-04-03T09:12:18.592Z,4.70
2023-04-03T09:15:27.800Z,4.80
2023-04-03T09:18:06.242Z,4.70
2023-04-03T09:20:45.389Z,4.70
2023-04-03T09:23:23.905Z,5.00
2023-04-03T09:25:55.573Z,5.20
2023-04-03T09:28:22.920Z,5.50
2023-04-03T09:30:50.047Z,5.50
2023-04-03T09:33:18.240Z,5.50
2023-04-03T09:35:48.777Z,5.50
2023-04-03T09:38:20.751Z,5.50
2023-04-03T09:41:13.020Z,5.60
2023-04-03T09:43:40.160Z,6.00
2023-04-03T09:46:32.349Z,5.80
2023-04-03T09:49:09.313Z,5.70
2023-04-03T09:51:37.607Z,5.80
2023-04-03T09:54:33.993Z,6.20
2023-04-03T09:57:08.331Z,6.70
2023-04-03T09:59:36.117Z,6.40
2023-04-03T10:02:24.547Z,6.90
2023-04-03T10:05:02.541Z,6.80
2023-04-03T10:07:38.169Z,7.40
2023-04-03T10:10:18.474Z,7.00
2023-04-03T10:12:45.638Z,7.10
2023-04-03T10:15:21.241Z,7.50
2023-04-03T10:18:00.422Z,8.10
2023-04-03T10:20:36.766Z,8.30
2023-04-03T10:23:15.781Z,8.40
2023-04-03T10:26:05.296Z,8.70
2023-04-03T10:29:09.598Z,8.80
2023-04-03T10:32:12.622Z,9.00
2023-04-03T10:34:51.680Z,9.10
2023-04-03T10:37:31.242Z,9.20
2023-04-03T10:40:40.389Z,9.50
2023-04-03T10:43:13.776Z,10.00
2023-04-03T10:46:23.169Z,9.70
2023-04-03T10:49:19.430Z,9.70
2023-04-03T10:51:49.415Z,9.70
2023-04-03T10:54:27.565Z,10.20
2023-04-03T10:57:08.502Z,10.00
2023-04-03T11:00:10.445Z,9.90
2023-04-03T11:02:47.064Z,9.90
2023-04-03T11:05:44.953Z,10.50
2023-04-03T11:08:41.755Z,10.20
2023-04-03T11:11:14.092Z,10.30
2023-04-03T11:14:07.157Z,10.10
2023-04-03T11:16:50.872Z,9.40
2023-04-03T11:19:39.694Z,9.10
2023-04-03T11:22:23.769Z,9.20
2023-04-03T11:25:11.477Z,9.80
2023-04-03T11:27:59.914Z,9.70
2023-04-03T11:30:34.813Z,9.70
2023-04-03T11:33:28.633Z,9.60
2023-04-03T11:36:19.089Z,9.50
2023-04-03T11:38:56.638Z,8.90
2023-04-03T11:41:31.948Z,9.10
2023-04-03T11:44:34.532Z,8.90
2023-04-03T11:47:03.337Z,8.80
2023-04-03T11:50:02.707Z,9.00
2023-04-03T11:52:44.596Z,9.70
2023-04-03T11:55:23.856Z,10.10
2023-04-03T11:57:59.877Z,10.60
2023-04-03T12:00:48.241Z,10.80
2023-04-03T12:03:33.531Z,10.80
2023-04-03T12:06:06.769Z,11.00
2023-04-03T12:08:33.878Z,11.30
2023-04-03T12:11:30.089Z,11.20
2023-04-03T12:13:57.129Z,10.70
2023-04-03T12:16:30.072Z,10.70
2023-04-03T12:19:03.730Z,10.50
2023-04-03T12:21:30.890Z,10.60
2023-04-03T12:24:09.906Z,10.80
2023-04-03T12:26:49.422Z,10.80
2023-04-03T12:29:25.736Z,11.20
2023-04-03T12:31:55.833Z,11.20
2023-04-03T12:34:48.482Z,11.70
2023-04-03T12:37:45.272Z,11.60
2023-04-03T12:40:31.222Z,10.60
2023-04-03T12:43:04.237Z,11.00
2023-04-03T12:46:14.097Z,11.50
2023-04-03T12:48:50.120Z,12.00
2023-04-03T12:51:34.879Z,13.00
2023-04-03T12:54:27.939Z,12.40
2023-04-03T12:57:17.511Z,11.50
2023-04-03T13:00:05.165Z,11.10
2023-04-03T13:02:36.965Z,10.80
2023-04-03T13:05:10.200Z,11.40
2023-04-03T13:07:41.944Z,12.10
2023-04-03T13:10:09.138Z,12.50
2023-04-03T13:12:57.224Z,10.90
2023-04-03T13:15:30.561Z,11.00
2023-04-03T13:17:58.142Z,10.70
2023-04-03T13:20:32.543Z,10.50
2023-04-03T13:23:09.939Z,10.50
2023-04-03T13:25:41.707Z,11.30
2023-04-03T13:28:14.295Z,11.50
2023-04-03T13:30:56.176Z,10.90
2023-04-03T13:33:26.701Z,10.90
2023-04-03T13:36:08.088Z,11.10
2023-04-03T13:38:37.458Z,11.00
2023-04-03T13:41:24.600Z,10.50
2023-04-03T13:43:55.409Z,10.20
2023-04-03T13:46:29.287Z,10.00
2023-04-03T13:48:58.270Z,10.40
2023-04-03T13:51:30.987Z,9.80
2023-04-03T13:54:01.220Z,9.60
2023-04-03T13:56:32.283Z,9.80
2023-04-03T13:59:02.355Z,10.00
2023-04-03T14:02:07.805Z,10.00
2023-04-03T14:04:47.088Z,10.10
2023-04-03T14:07:15.817Z,10.00
2023-04-03T14:09:43.892Z,10.30
2023-04-03T14:12:32.245Z,10.50
2023-04-03T14:15:02.280Z,10.70
2023-04-03T14:17:29.641Z,10.80
2023-04-03T14:19:58.431Z,10.40
2023-04-03T14:22:29.490Z,10.40
2023-04-03T14:24:57.216Z,9.60
2023-04-03T14:27:30.327Z,9.60
2023-04-03T14:29:59.065Z,9.70
2023-04-03T14:32:27.224Z,9.90
2023-04-03T14:34:54.888Z,9.90
2023-04-03T14:37:25.991Z,9.80
2023-04-03T14:39:57.141Z,9.60
2023-04-03T14:42:27.964Z,9.60
2023-04-03T14:44:56.065Z,9.60
2023-04-03T14:47:31.784Z,9.50
2023-04-03T14:50:02.062Z,9.00
2023-04-03T14:52:35.426Z,9.10
2023-04-03T14:55:05.756Z,9.10
2023-04-03T14:57:33.459Z,9.00
2023-04-03T15:00:02.163Z,8.90
2023-04-03T15:02:29.549Z,8.50
2023-04-03T15:04:58.158Z,8.80
2023-04-03T15:07:28.168Z,8.80
2023-04-03T15:09:57.632Z,9.20
2023-04-03T15:12:25.912Z,9.00
2023-04-03T15:15:00.782Z,8.80
2023-04-03T15:17:30.227Z,8.80
2023-04-03T15:19:57.413Z,8.50
2023-04-03T15:22:24.517Z,8.50
2023-04-03T15:24:51.691Z,8.50
2023-04-03T15:27:18.864Z,8.50
2023-04-03T15:29:46.659Z,8.80
2023-04-03T15:32:14.494Z,8.90
2023-04-03T15:34:41.784Z,9.00
2023-04-03T15:37:08.853Z,8.80
2023-04-03T15:39:36.007Z,8.60
2023-04-03T15:42:07.401Z,8.60
2023-04-03T15:44:36.261Z,8.50
2023-04-03T15:47:04.107Z,8.30
2023-04-03T15:49:33.824Z,8.20
2023-04-03T15:52:01.377Z,8.30
2023-04-03T15:54:32.917Z,8.20
2023-04-03T15:57:00.119Z,8.20
2023-04-03T15:59:27.443Z,8.10
2023-04-03T16:01:54.732Z,8.20
2023-04-03T16:04:22.440Z,8.10
2023-04-03T16:06:50.443Z,7.80
2023-04-03T16:09:17.641Z,7.80
2023-04-03T16:11:44.782Z,8.00
2023-04-03T16:14:12.352Z,7.90
2023-04-03T16:16:40.538Z,7.90
2023-04-03T16:19:07.804Z,8.20
2023-04-03T16:21:34.996Z,8.10
2023-04-03T16:24:03.250Z,7.30
2023-04-03T16:26:30.511Z,7.30
2023-04-03T16:28:57.720Z,7.30
2023-04-03T16:31:26.311Z,7.60
2023-04-03T16:33:53.577Z,7.50
2023-04-03T16:36:20.769Z,7.40
2023-04-03T16:38:47.936Z,7.20
2023-04-03T16:41:15.539Z,7.80
2023-04-03T16:46:10.839Z,7.80
2023-04-03T16:48:38.055Z,7.80
2023-04-03T16:51:05.297Z,7.80
2023-04-03T16:53:32.414Z,7.70
2023-04-03T16:55:59.962Z,7.60
2023-04-03T16:58:27.187Z,7.50
2023-04-03T17:00:54.851Z,7.60
2023-04-03T17:03:24.149Z,7.40
2023-04-03T17:05:51.397Z,7.10
2023-04-03T17:08:19.258Z,7.40
2023-04-03T17:10:46.503Z,7.20
2023-04-03T17:13:14.000Z,7.30
2023-04-03T17:15:41.742Z,7.10
2023-04-03T17:18:09.284Z,7.10
2023-04-03T17:20:38.987Z,6.70
2023-04-03T17:23:06.791Z,7.00
2023-04-03T17:25:34.021Z,7.10
2023-04-03T17:28:01.494Z,6.90
2023-04-03T17:30:28.715Z,6.70
2023-04-03T17:32:55.930Z,6.90
2023-04-03T17:35:23.242Z,7.00
2023-04-03T17:37:50.888Z,7.00
2023-04-03T17:40:18.863Z,7.10
2023-04-03T17:42:46.136Z,7.10
2023-04-03T17:45:13.336Z,7.10
2023-04-03T17:47:40.512Z,6.80
2023-04-03T17:50:08.206Z,6.80
2023-04-03T17:52:35.486Z,6.90
2023-04-03T17:55:03.700Z,6.70
2023-04-03T17:57:31.732Z,6.80
2023-04-03T17:59:58.964Z,6.70
2023-04-03T18:02:26.376Z,6.60
2023-04-03T18:04:54.187Z,6.70
2023-04-03T18:07:21.709Z,6.70
2023-04-03T18:09:50.908Z,6.40
2023-04-03T18:12:18.492Z,6.30
2023-04-03T18:14:46.132Z,5.70
2023-04-03T18:17:13.484Z,5.90
2023-04-03T18:19:40.801Z,5.90
2023-04-03T18:22:21.115Z,5.70
2023-04-03T18:24:50.583Z,5.90
2023-04-03T18:27:20.821Z,5.90
2023-04-03T18:29:54.972Z,5.70
2023-04-03T18:32:22.826Z,5.80
2023-04-03T18:34:50.380Z,5.80
2023-04-03T18:37:17.775Z,6.00
2023-04-03T18:39:44.873Z,5.80
2023-04-03T18:42:16.395Z,5.90
2023-04-03T18:44:46.436Z,5.80
2023-04-03T18:47:13.819Z,5.80
2023-04-03T18:49:42.448Z,5.90
2023-04-03T18:52:11.972Z,5.90
2023-04-03T18:54:39.475Z,5.90
2023-04-03T18:57:06.674Z,5.80
2023-04-03T18:59:33.908Z,5.70
2023-04-03T19:02:01.626Z,5.80
2023-04-03T19:04:29.894Z,6.00
2023-04-03T19:06:57.085Z,6.10
2023-04-03T19:09:26.370Z,5.90
2023-04-03T19:11:53.937Z,6.00
2023-04-03T19:14:21.096Z,5.90
2023-04-03T19:16:48.165Z,6.00
2023-04-03T19:19:15.400Z,5.90
2023-04-03T19:21:42.574Z,5.60
2023-04-03T19:24:11.882Z,5.70
2023-04-03T19:26:39.994Z,5.60
2023-04-03T19:29:07.644Z,5.70
2023-04-03T19:31:37.270Z,5.60
2023-04-03T19:34:05.906Z,5.70
2023-04-03T19:36:34.022Z,5.70
2023-04-03T19:39:01.285Z,5.80
2023-04-03T19:41:31.692Z,5.80
2023-04-03T19:43:58.838Z,5.50
2023-04-03T19:46:28.089Z,5.60
2023-04-03T19:48:55.322Z,5.70
2023-04-03T19:51:22.582Z,5.80
2023-04-03T19:53:49.872Z,5.70
2023-04-03T19:56:17.250Z,5.60
2023-04-03T19:58:45.826Z,5.50
2023-04-03T20:01:13.095Z,5.20
2023-04-03T20:03:40.298Z,5.30
2023-04-03T20:06:07.385Z,5.40
2023-04-03T20:08:35.110Z,5.20
2023-04-03T20:11:02.172Z,5.30
2023-04-03T20:13:29.307Z,5.30
2023-04-03T20:15:56.817Z,5.40
2023-04-03T20:18:24.213Z,5.60
2023-04-03T20:21:00.192Z,5.60
2023-04-03T20:23:28.178Z,5.50
2023-04-03T20:26:09.424Z,5.40
2023-04-03T20:28:41.746Z,5.20
2023-04-03T20:31:10.133Z,5.40
2023-04-03T20:33:38.105Z,5.50
2023-04-03T20:36:05.369Z,5.50
2023-04-03T20:38:32.554Z,5.50
2023-04-03T20:41:00.290Z,5.50
2023-04-03T20:43:28.444Z,5.40
2023-04-03T20:45:55.886Z,5.30
2023-04-03T20:48:23.841Z,5.30
2023-04-03T20:50:51.124Z,5.40
2023-04-03T20:53:19.274Z,5.40
2023-04-03T20:56:00.713Z,5.40
2023-04-03T20:58:35.795Z,5.40
2023-04-03T21:01:03.150Z,5.40
2023-04-03T21:03:31.178Z,5.40
2023-04-03T21:06:01.120Z,5.40
2023-04-03T21:09:05.651Z,5.50
2023-04-03T21:12:09.851Z,5.40
2023-04-03T21:15:14.861Z,5.40
2023-04-03T21:18:08.257Z,5.20
2023-04-03T21:20:35.502Z,5.00
2023-04-03T21:23:03.081Z,5.20
2023-04-03T21:25:30.979Z,5.10
2023-04-03T21:27:59.083Z,5.00
2023-04-03T21:30:26.736Z,5.10
2023-04-03T21:32:54.286Z,5.20
2023-04-03T21:35:22.023Z,5.10
2023-04-03T21:37:49.960Z,5.10
2023-04-03T21:40:17.768Z,4.90
2023-04-03T21:42:44.897Z,4.60
2023-04-03T21:45:16.006Z,4.60
2023-04-03T21:47:44.910Z,4.80
2023-04-03T21:50:12.413Z,4.80
2023-04-03T21:52:39.520Z,4.90
2023-04-03T21:55:08.706Z,4.80
2023-04-03T21:57:36.273Z,4.90
2023-04-03T22:00:06.336Z,4.90
2023-04-03T22:02:36.244Z,4.80
2023-04-03T22:05:03.742Z,4.90
2023-04-03T22:07:30.851Z,4.90
2023-04-03T22:09:57.901Z,4.80
2023-04-03T22:12:24.985Z,4.80
2023-04-03T22:14:52.065Z,4.80
2023-04-03T22:17:19.129Z,4.80
2023-04-03T22:19:46.735Z,4.70
2023-04-03T22:22:14.184Z,4.60
2023-04-03T22:24:41.258Z,4.60
2023-04-03T22:27:08.502Z,4.40
2023-04-03T22:29:35.598Z,4.60
2023-04-03T22:32:02.736Z,4.70
2023-04-03T22:34:29.925Z,4.60
2023-04-03T22:36:57.111Z,4.30
2023-04-03T22:39:24.215Z,4.50
2023-04-03T22:41:52.592Z,4.60
2023-04-03T22:44:19.694Z,4.50
2023-04-03T22:46:47.401Z,4.70
2023-04-03T22:49:14.983Z,4.50
2023-04-03T22:51:42.107Z,4.50
2023-04-03T22:54:09.171Z,4.20
2023-04-03T22:56:36.248Z,4.30
2023-04-03T22:59:03.503Z,4.50
2023-04-03T23:01:30.715Z,4.50
2023-04-03T23:03:57.905Z,4.50
2023-04-03T23:06:26.789Z,4.50
2023-04-03T23:08:53.877Z,4.30
2023-04-03T23:11:21.506Z,4.10
2023-04-03T23:13:48.594Z,4.10
2023-04-03T23:16:15.690Z,4.00
2023-04-03T23:18:43.824Z,4.20
2023-04-03T23:21:11.005Z,4.20
2023-04-03T23:23:38.147Z,4.30
2023-04-03T23:26:05.831Z,4.10
2023-04-03T23:28:32.867Z,3.90
2023-04-03T23:31:06.717Z,3.90
2023-04-03T23:33:34.439Z,4.00
2023-04-03T23:36:07.888Z,3.90
2023-04-03T23:38:35.684Z,3.90
2023-04-03T23:41:02.800Z,4.00
2023-04-03T23:43:31.281Z,4.10
2023-04-03T23:45:58.688Z,4.10
2023-04-03T23:48:26.057Z,4.10
2023-04-03T23:50:53.124Z,4.00
2023-04-03T23:53:20.203Z,4.00
2023-04-03T23:55:47.314Z,4.10
2023-04-03T23:58:14.485Z,4.10
